sensor_id;sensor_type;location;lat;lon;timestamp;P1;durP1;ratioP1;P2;durP2;ratioP2
28246;SDS011;66191;53.178;22.058;2023-01-29T00:12:20;20.83;;;10.52;;
28246;SDS011;66191;53.178;22.058;2023-01-29T00:14:51;20.77;;;11.00;;
28246;SDS011;66191;53.178;22.058;2023-01-29T00:17:22;21.33;;;10.95;;
28246;SDS011;66191;53.178;22.058;2023-01-29T00:19:55;18.55;;;10.07;;
28246;SDS011;66191;53.178;22.058;2023-01-29T00:22:28;20.02;;;10.82;;
28246;SDS011;66191;53.178;22.058;2023-01-29T00:25:00;17.90;;;9.40;;
28246;SDS011;66191;53.178;22.058;2023-01-29T00:27:34;17.88;;;10.45;;
28246;SDS011;66191;53.178;22.058;2023-01-29T00:30:05;19.40;;;11.68;;
28246;SDS011;66191;53.178;22.058;2023-01-29T00:32:44;22.40;;;12.07;;
28246;SDS011;66191;53.178;22.058;2023-01-29T00:35:15;20.95;;;11.73;;
28246;SDS011;66191;53.178;22.058;2023-01-29T00:37:47;19.20;;;10.60;;
28246;SDS011;66191;53.178;22.058;2023-01-29T00:40:18;18.55;;;10.82;;
28246;SDS011;66191;53.178;22.058;2023-01-29T00:42:53;22.27;;;11.32;;
28246;SDS011;66191;53.178;22.058;2023-01-29T00:45:37;18.70;;;10.85;;
28246;SDS011;66191;53.178;22.058;2023-01-29T00:48:09;18.50;;;10.50;;
28246;SDS011;66191;53.178;22.058;2023-01-29T00:50:40;18.70;;;10.18;;
28246;SDS011;66191;53.178;22.058;2023-01-29T00:53:11;18.40;;;8.90;;
28246;SDS011;66191;53.178;22.058;2023-01-29T00:55:43;16.50;;;9.95;;
28246;SDS011;66191;53.178;22.058;2023-01-29T00:58:17;15.40;;;8.52;;
28246;SDS011;66191;53.178;22.058;2023-01-29T01:00:48;16.98;;;9.40;;
28246;SDS011;66191;53.178;22.058;2023-01-29T01:03:20;15.98;;;9.02;;
28246;SDS011;66191;53.178;22.058;2023-01-29T01:05:48;16.50;;;9.20;;
28246;SDS011;66191;53.178;22.058;2023-01-29T01:08:19;19.80;;;10.05;;
28246;SDS011;66191;53.178;22.058;2023-01-29T01:19:04;16.75;;;9.40;;
28246;SDS011;66191;53.178;22.058;2023-01-29T01:21:36;19.85;;;10.90;;
28246;SDS011;66191;53.178;22.058;2023-01-29T01:24:11;15.65;;;10.43;;
28246;SDS011;66191;53.178;22.058;2023-01-29T01:26:43;14.75;;;9.45;;
28246;SDS011;66191;53.178;22.058;2023-01-29T01:29:14;16.55;;;10.10;;
28246;SDS011;66191;53.178;22.058;2023-01-29T01:31:46;16.58;;;9.93;;
28246;SDS011;66191;53.178;22.058;2023-01-29T01:34:19;17.48;;;9.98;;
28246;SDS011;66191;53.178;22.058;2023-01-29T01:36:53;16.65;;;8.95;;
28246;SDS011;66191;53.178;22.058;2023-01-29T01:39:24;14.73;;;8.77;;
28246;SDS011;66191;53.178;22.058;2023-01-29T01:41:56;18.20;;;9.40;;
28246;SDS011;66191;53.178;22.058;2023-01-29T01:47:27;17.80;;;9.32;;
28246;SDS011;66191;53.178;22.058;2023-01-29T01:50:07;17.20;;;9.07;;
28246;SDS011;66191;53.178;22.058;2023-01-29T01:52:43;15.75;;;8.85;;
28246;SDS011;66191;53.178;22.058;2023-01-29T01:55:18;17.63;;;8.90;;
28246;SDS011;66191;53.178;22.058;2023-01-29T01:57:53;15.82;;;9.10;;
28246;SDS011;66191;53.178;22.058;2023-01-29T02:00:27;15.55;;;9.13;;
28246;SDS011;66191;53.178;22.058;2023-01-29T02:02:58;14.48;;;8.48;;
28246;SDS011;66191;53.178;22.058;2023-01-29T02:05:46;20.33;;;10.27;;
28246;SDS011;66191;53.178;22.058;2023-01-29T02:08:31;16.63;;;8.93;;
28246;SDS011;66191;53.178;22.058;2023-01-29T02:11:20;18.17;;;10.18;;
28246;SDS011;66191;53.178;22.058;2023-01-29T02:13:52;19.30;;;9.77;;
28246;SDS011;66191;53.178;22.058;2023-01-29T02:16:25;16.58;;;9.38;;
28246;SDS011;66191;53.178;22.058;2023-01-29T02:18:56;16.75;;;9.20;;
28246;SDS011;66191;53.178;22.058;2023-01-29T02:24:25;17.58;;;9.35;;
28246;SDS011;66191;53.178;22.058;2023-01-29T02:27:16;16.08;;;9.10;;
28246;SDS011;66191;53.178;22.058;2023-01-29T02:29:58;15.82;;;8.57;;
28246;SDS011;66191;53.178;22.058;2023-01-29T02:32:33;17.55;;;9.52;;
28246;SDS011;66191;53.178;22.058;2023-01-29T02:35:22;17.70;;;9.27;;
28246;SDS011;66191;53.178;22.058;2023-01-29T02:38:05;17.95;;;9.75;;
28246;SDS011;66191;53.178;22.058;2023-01-29T02:40:43;18.15;;;9.90;;
28246;SDS011;66191;53.178;22.058;2023-01-29T02:43:21;17.45;;;8.73;;
28246;SDS011;66191;53.178;22.058;2023-01-29T02:46:07;18.58;;;9.05;;
28246;SDS011;66191;53.178;22.058;2023-01-29T02:48:47;15.98;;;9.10;;
28246;SDS011;66191;53.178;22.058;2023-01-29T02:51:27;16.13;;;8.90;;
28246;SDS011;66191;53.178;22.058;2023-01-29T02:54:03;17.15;;;9.68;;
28246;SDS011;66191;53.178;22.058;2023-01-29T02:56:38;18.30;;;9.02;;
28246;SDS011;66191;53.178;22.058;2023-01-29T02:59:14;19.67;;;9.82;;
28246;SDS011;66191;53.178;22.058;2023-01-29T03:01:53;15.88;;;8.65;;
28246;SDS011;66191;53.178;22.058;2023-01-29T03:04:29;17.95;;;9.57;;
28246;SDS011;66191;53.178;22.058;2023-01-29T03:07:04;21.40;;;10.10;;
28246;SDS011;66191;53.178;22.058;2023-01-29T03:09:48;22.23;;;10.98;;
28246;SDS011;66191;53.178;22.058;2023-01-29T03:12:25;25.15;;;11.85;;
28246;SDS011;66191;53.178;22.058;2023-01-29T03:15:04;22.58;;;12.10;;
28246;SDS011;66191;53.178;22.058;2023-01-29T03:17:58;22.13;;;11.05;;
28246;SDS011;66191;53.178;22.058;2023-01-29T03:20:36;21.30;;;11.30;;
28246;SDS011;66191;53.178;22.058;2023-01-29T03:23:16;26.92;;;10.82;;
28246;SDS011;66191;53.178;22.058;2023-01-29T03:25:50;30.98;;;11.95;;
28246;SDS011;66191;53.178;22.058;2023-01-29T03:28:36;28.25;;;11.93;;
28246;SDS011;66191;53.178;22.058;2023-01-29T03:31:22;23.63;;;10.77;;
28246;SDS011;66191;53.178;22.058;2023-01-29T03:34:11;27.00;;;12.75;;
28246;SDS011;66191;53.178;22.058;2023-01-29T03:36:51;22.85;;;11.55;;
28246;SDS011;66191;53.178;22.058;2023-01-29T03:39:26;28.13;;;12.95;;
28246;SDS011;66191;53.178;22.058;2023-01-29T03:42:01;28.50;;;11.73;;
28246;SDS011;66191;53.178;22.058;2023-01-29T03:44:43;25.17;;;12.38;;
28246;SDS011;66191;53.178;22.058;2023-01-29T03:47:30;23.70;;;10.05;;
28246;SDS011;66191;53.178;22.058;2023-01-29T03:50:14;31.50;;;12.95;;
28246;SDS011;66191;53.178;22.058;2023-01-29T03:52:59;25.30;;;11.30;;
28246;SDS011;66191;53.178;22.058;2023-01-29T03:55:36;24.40;;;10.90;;
28246;SDS011;66191;53.178;22.058;2023-01-29T03:58:14;23.60;;;11.88;;
28246;SDS011;66191;53.178;22.058;2023-01-29T04:00:51;30.08;;;13.25;;
28246;SDS011;66191;53.178;22.058;2023-01-29T04:03:25;26.00;;;12.05;;
28246;SDS011;66191;53.178;22.058;2023-01-29T04:06:08;20.42;;;10.77;;
28246;SDS011;66191;53.178;22.058;2023-01-29T04:08:58;19.13;;;11.45;;
28246;SDS011;66191;53.178;22.058;2023-01-29T04:11:36;24.80;;;11.88;;
28246;SDS011;66191;53.178;22.058;2023-01-29T04:14:13;20.75;;;10.75;;
28246;SDS011;66191;53.178;22.058;2023-01-29T04:16:48;23.20;;;11.68;;
28246;SDS011;66191;53.178;22.058;2023-01-29T04:19:32;21.75;;;11.38;;
28246;SDS011;66191;53.178;22.058;2023-01-29T04:22:09;26.40;;;12.48;;
28246;SDS011;66191;53.178;22.058;2023-01-29T04:24:45;27.40;;;13.05;;
28246;SDS011;66191;53.178;22.058;2023-01-29T04:27:20;27.88;;;13.77;;
28246;SDS011;66191;53.178;22.058;2023-01-29T04:30:02;32.67;;;15.00;;
28246;SDS011;66191;53.178;22.058;2023-01-29T04:32:44;31.17;;;13.73;;
28246;SDS011;66191;53.178;22.058;2023-01-29T04:35:28;35.85;;;13.23;;
28246;SDS011;66191;53.178;22.058;2023-01-29T04:38:11;35.78;;;13.45;;
28246;SDS011;66191;53.178;22.058;2023-01-29T04:40:49;35.55;;;13.40;;
28246;SDS011;66191;53.178;22.058;2023-01-29T04:43:29;32.83;;;14.13;;
28246;SDS011;66191;53.178;22.058;2023-01-29T04:46:11;33.20;;;15.73;;
28246;SDS011;66191;53.178;22.058;2023-01-29T04:48:54;35.92;;;16.45;;
28246;SDS011;66191;53.178;22.058;2023-01-29T04:51:33;36.53;;;17.02;;
28246;SDS011;66191;53.178;22.058;2023-01-29T04:54:14;31.77;;;14.85;;
28246;SDS011;66191;53.178;22.058;2023-01-29T04:56:53;34.50;;;16.10;;
28246;SDS011;66191;53.178;22.058;2023-01-29T04:59:31;36.50;;;17.33;;
28246;SDS011;66191;53.178;22.058;2023-01-29T05:02:07;33.15;;;17.25;;
28246;SDS011;66191;53.178;22.058;2023-01-29T05:04:40;41.70;;;18.42;;
28246;SDS011;66191;53.178;22.058;2023-01-29T05:07:14;34.25;;;15.52;;
28246;SDS011;66191;53.178;22.058;2023-01-29T05:09:51;35.85;;;16.85;;
28246;SDS011;66191;53.178;22.058;2023-01-29T05:12:25;33.78;;;16.50;;
28246;SDS011;66191;53.178;22.058;2023-01-29T05:14:59;28.05;;;13.82;;
28246;SDS011;66191;53.178;22.058;2023-01-29T05:17:32;33.40;;;16.17;;
28246;SDS011;66191;53.178;22.058;2023-01-29T05:20:04;34.42;;;15.77;;
28246;SDS011;66191;53.178;22.058;2023-01-29T05:22:36;32.33;;;16.00;;
28246;SDS011;66191;53.178;22.058;2023-01-29T05:25:18;34.00;;;16.60;;
28246;SDS011;66191;53.178;22.058;2023-01-29T05:27:51;42.30;;;18.33;;
28246;SDS011;66191;53.178;22.058;2023-01-29T05:30:35;33.88;;;16.73;;
28246;SDS011;66191;53.178;22.058;2023-01-29T05:33:10;32.38;;;15.57;;
28246;SDS011;66191;53.178;22.058;2023-01-29T05:35:43;39.45;;;18.75;;
28246;SDS011;66191;53.178;22.058;2023-01-29T05:38:15;41.22;;;20.38;;
28246;SDS011;66191;53.178;22.058;2023-01-29T05:40:49;32.25;;;16.00;;
28246;SDS011;66191;53.178;22.058;2023-01-29T05:43:21;35.17;;;16.30;;
28246;SDS011;66191;53.178;22.058;2023-01-29T05:45:56;32.20;;;15.82;;
28246;SDS011;66191;53.178;22.058;2023-01-29T05:48:28;32.85;;;17.08;;
28246;SDS011;66191;53.178;22.058;2023-01-29T05:50:59;36.70;;;16.95;;
28246;SDS011;66191;53.178;22.058;2023-01-29T05:53:32;32.95;;;17.50;;
28246;SDS011;66191;53.178;22.058;2023-01-29T05:56:06;39.15;;;18.48;;
28246;SDS011;66191;53.178;22.058;2023-01-29T05:58:37;40.03;;;20.33;;
28246;SDS011;66191;53.178;22.058;2023-01-29T06:01:09;36.63;;;19.45;;
28246;SDS011;66191;53.178;22.058;2023-01-29T06:03:42;33.97;;;17.48;;
28246;SDS011;66191;53.178;22.058;2023-01-29T06:06:13;33.42;;;16.55;;
28246;SDS011;66191;53.178;22.058;2023-01-29T06:08:45;33.40;;;15.93;;
28246;SDS011;66191;53.178;22.058;2023-01-29T06:11:19;34.88;;;17.92;;
28246;SDS011;66191;53.178;22.058;2023-01-29T06:13:50;39.47;;;17.33;;
28246;SDS011;66191;53.178;22.058;2023-01-29T06:16:21;35.50;;;16.25;;
28246;SDS011;66191;53.178;22.058;2023-01-29T06:18:53;33.67;;;16.38;;
28246;SDS011;66191;53.178;22.058;2023-01-29T06:21:24;35.30;;;17.75;;
28246;SDS011;66191;53.178;22.058;2023-01-29T06:28:59;35.60;;;17.88;;
28246;SDS011;66191;53.178;22.058;2023-01-29T06:31:30;40.33;;;19.73;;
28246;SDS011;66191;53.178;22.058;2023-01-29T06:34:06;41.35;;;20.45;;
28246;SDS011;66191;53.178;22.058;2023-01-29T06:36:37;42.75;;;20.95;;
28246;SDS011;66191;53.178;22.058;2023-01-29T06:44:14;36.33;;;16.27;;
28246;SDS011;66191;53.178;22.058;2023-01-29T06:46:46;35.45;;;16.83;;
28246;SDS011;66191;53.178;22.058;2023-01-29T06:49:16;30.75;;;14.80;;
28246;SDS011;66191;53.178;22.058;2023-01-29T06:51:48;31.17;;;16.52;;
28246;SDS011;66191;53.178;22.058;2023-01-29T06:54:19;34.50;;;16.80;;
28246;SDS011;66191;53.178;22.058;2023-01-29T06:56:53;31.23;;;15.50;;
28246;SDS011;66191;53.178;22.058;2023-01-29T06:59:23;35.47;;;18.15;;
28246;SDS011;66191;53.178;22.058;2023-01-29T07:01:55;32.80;;;15.23;;
28246;SDS011;66191;53.178;22.058;2023-01-29T07:04:26;36.05;;;16.90;;
28246;SDS011;66191;53.178;22.058;2023-01-29T07:06:58;32.80;;;16.35;;
28246;SDS011;66191;53.178;22.058;2023-01-29T07:09:29;33.97;;;16.50;;
28246;SDS011;66191;53.178;22.058;2023-01-29T07:12:03;36.15;;;18.15;;
28246;SDS011;66191;53.178;22.058;2023-01-29T07:14:34;37.25;;;17.80;;
28246;SDS011;66191;53.178;22.058;2023-01-29T07:17:05;39.83;;;19.55;;
28246;SDS011;66191;53.178;22.058;2023-01-29T07:19:37;52.97;;;25.27;;
28246;SDS011;66191;53.178;22.058;2023-01-29T07:22:08;46.30;;;22.45;;
28246;SDS011;66191;53.178;22.058;2023-01-29T07:24:40;47.33;;;22.70;;
28246;SDS011;66191;53.178;22.058;2023-01-29T07:27:15;39.10;;;19.95;;
28246;SDS011;66191;53.178;22.058;2023-01-29T07:29:45;48.30;;;22.45;;
28246;SDS011;66191;53.178;22.058;2023-01-29T07:32:17;42.58;;;20.73;;
28246;SDS011;66191;53.178;22.058;2023-01-29T07:34:48;51.47;;;21.52;;
28246;SDS011;66191;53.178;22.058;2023-01-29T07:37:19;56.28;;;24.90;;
28246;SDS011;66191;53.178;22.058;2023-01-29T07:39:50;49.05;;;23.70;;
28246;SDS011;66191;53.178;22.058;2023-01-29T07:42:25;53.33;;;24.38;;
28246;SDS011;66191;53.178;22.058;2023-01-29T07:44:56;50.63;;;24.63;;
28246;SDS011;66191;53.178;22.058;2023-01-29T07:47:27;55.55;;;26.17;;
28246;SDS011;66191;53.178;22.058;2023-01-29T07:49:58;51.83;;;25.65;;
28246;SDS011;66191;53.178;22.058;2023-01-29T07:52:30;60.70;;;29.20;;
28246;SDS011;66191;53.178;22.058;2023-01-29T07:55:02;50.60;;;25.48;;
28246;SDS011;66191;53.178;22.058;2023-01-29T07:57:37;47.10;;;22.52;;
28246;SDS011;66191;53.178;22.058;2023-01-29T08:00:10;47.45;;;23.45;;
28246;SDS011;66191;53.178;22.058;2023-01-29T08:02:44;51.50;;;24.80;;
28246;SDS011;66191;53.178;22.058;2023-01-29T08:05:18;62.35;;;29.55;;
28246;SDS011;66191;53.178;22.058;2023-01-29T08:07:51;51.88;;;24.63;;
28246;SDS011;66191;53.178;22.058;2023-01-29T08:10:32;58.10;;;27.00;;
28246;SDS011;66191;53.178;22.058;2023-01-29T08:13:06;63.33;;;28.02;;
28246;SDS011;66191;53.178;22.058;2023-01-29T08:15:41;66.47;;;30.35;;
28246;SDS011;66191;53.178;22.058;2023-01-29T08:18:14;62.80;;;28.42;;
28246;SDS011;66191;53.178;22.058;2023-01-29T08:20:45;49.80;;;23.42;;
28246;SDS011;66191;53.178;22.058;2023-01-29T08:23:19;50.58;;;25.30;;
28246;SDS011;66191;53.178;22.058;2023-01-29T08:28:23;53.15;;;24.40;;
28246;SDS011;66191;53.178;22.058;2023-01-29T08:30:55;60.45;;;28.55;;
28246;SDS011;66191;53.178;22.058;2023-01-29T08:33:27;55.63;;;27.67;;
28246;SDS011;66191;53.178;22.058;2023-01-29T08:36:06;77.70;;;36.38;;
28246;SDS011;66191;53.178;22.058;2023-01-29T08:38:38;73.63;;;35.28;;
28246;SDS011;66191;53.178;22.058;2023-01-29T08:41:10;57.42;;;27.80;;
28246;SDS011;66191;53.178;22.058;2023-01-29T08:43:45;60.38;;;28.13;;
28246;SDS011;66191;53.178;22.058;2023-01-29T08:46:16;64.03;;;28.25;;
28246;SDS011;66191;53.178;22.058;2023-01-29T08:48:48;63.47;;;27.35;;
28246;SDS011;66191;53.178;22.058;2023-01-29T08:51:19;46.30;;;22.77;;
28246;SDS011;66191;53.178;22.058;2023-01-29T08:53:52;43.08;;;22.45;;
28246;SDS011;66191;53.178;22.058;2023-01-29T08:56:24;64.28;;;25.20;;
28246;SDS011;66191;53.178;22.058;2023-01-29T08:58:58;50.55;;;27.15;;
28246;SDS011;66191;53.178;22.058;2023-01-29T09:01:29;48.45;;;23.30;;
28246;SDS011;66191;53.178;22.058;2023-01-29T09:04:01;53.10;;;24.95;;
28246;SDS011;66191;53.178;22.058;2023-01-29T09:06:32;54.55;;;28.10;;
28246;SDS011;66191;53.178;22.058;2023-01-29T09:09:04;43.47;;;23.45;;
28246;SDS011;66191;53.178;22.058;2023-01-29T09:11:36;42.10;;;21.73;;
28246;SDS011;66191;53.178;22.058;2023-01-29T09:14:14;48.95;;;24.48;;
28246;SDS011;66191;53.178;22.058;2023-01-29T09:16:45;45.25;;;23.70;;
28246;SDS011;66191;53.178;22.058;2023-01-29T09:19:17;38.80;;;20.52;;
28246;SDS011;66191;53.178;22.058;2023-01-29T09:21:48;45.70;;;22.63;;
28246;SDS011;66191;53.178;22.058;2023-01-29T09:24:19;45.13;;;22.45;;
28246;SDS011;66191;53.178;22.058;2023-01-29T09:26:50;47.22;;;27.35;;
28246;SDS011;66191;53.178;22.058;2023-01-29T09:29:25;45.17;;;24.17;;
28246;SDS011;66191;53.178;22.058;2023-01-29T09:31:57;56.38;;;31.20;;
28246;SDS011;66191;53.178;22.058;2023-01-29T09:34:29;81.35;;;47.00;;
28246;SDS011;66191;53.178;22.058;2023-01-29T09:37:01;63.15;;;35.13;;
28246;SDS011;66191;53.178;22.058;2023-01-29T09:39:33;81.10;;;43.05;;
28246;SDS011;66191;53.178;22.058;2023-01-29T09:42:06;167.30;;;107.30;;
28246;SDS011;66191;53.178;22.058;2023-01-29T09:44:48;78.68;;;37.30;;
28246;SDS011;66191;53.178;22.058;2023-01-29T09:47:31;73.97;;;38.70;;
28246;SDS011;66191;53.178;22.058;2023-01-29T09:50:06;61.95;;;34.95;;
28246;SDS011;66191;53.178;22.058;2023-01-29T09:52:45;70.65;;;38.50;;
28246;SDS011;66191;53.178;22.058;2023-01-29T09:55:21;61.50;;;34.03;;
28246;SDS011;66191;53.178;22.058;2023-01-29T09:57:57;57.55;;;33.42;;
28246;SDS011;66191;53.178;22.058;2023-01-29T10:00:35;77.32;;;48.22;;
28246;SDS011;66191;53.178;22.058;2023-01-29T10:03:19;68.10;;;38.50;;
28246;SDS011;66191;53.178;22.058;2023-01-29T10:06:08;64.33;;;38.43;;
28246;SDS011;66191;53.178;22.058;2023-01-29T10:11:56;87.55;;;52.08;;
28246;SDS011;66191;53.178;22.058;2023-01-29T10:14:38;110.07;;;67.88;;
28246;SDS011;66191;53.178;22.058;2023-01-29T10:17:24;69.63;;;40.25;;
28246;SDS011;66191;53.178;22.058;2023-01-29T10:20:13;49.88;;;29.02;;
28246;SDS011;66191;53.178;22.058;2023-01-29T10:23:04;83.65;;;46.63;;
28246;SDS011;66191;53.178;22.058;2023-01-29T10:25:44;94.07;;;51.75;;
28246;SDS011;66191;53.178;22.058;2023-01-29T10:28:22;71.68;;;35.13;;
28246;SDS011;66191;53.178;22.058;2023-01-29T10:30:59;109.53;;;58.03;;
28246;SDS011;66191;53.178;22.058;2023-01-29T10:33:38;119.97;;;64.38;;
28246;SDS011;66191;53.178;22.058;2023-01-29T10:36:31;75.95;;;40.75;;
28246;SDS011;66191;53.178;22.058;2023-01-29T10:39:08;64.30;;;32.03;;
28246;SDS011;66191;53.178;22.058;2023-01-29T10:41:49;71.32;;;34.72;;
28246;SDS011;66191;53.178;22.058;2023-01-29T10:44:36;89.60;;;46.65;;
28246;SDS011;66191;53.178;22.058;2023-01-29T10:50:14;113.32;;;60.38;;
28246;SDS011;66191;53.178;22.058;2023-01-29T10:53:02;73.85;;;40.92;;
28246;SDS011;66191;53.178;22.058;2023-01-29T10:55:52;91.45;;;47.20;;
28246;SDS011;66191;53.178;22.058;2023-01-29T10:58:44;133.82;;;70.88;;
28246;SDS011;66191;53.178;22.058;2023-01-29T11:01:21;86.43;;;44.78;;
28246;SDS011;66191;53.178;22.058;2023-01-29T11:03:55;94.00;;;49.83;;
28246;SDS011;66191;53.178;22.058;2023-01-29T11:06:32;86.30;;;48.97;;
28246;SDS011;66191;53.178;22.058;2023-01-29T11:09:06;77.55;;;40.47;;
28246;SDS011;66191;53.178;22.058;2023-01-29T11:11:43;85.85;;;46.45;;
28246;SDS011;66191;53.178;22.058;2023-01-29T11:14:20;76.22;;;38.63;;
28246;SDS011;66191;53.178;22.058;2023-01-29T11:16:55;86.40;;;48.13;;
28246;SDS011;66191;53.178;22.058;2023-01-29T11:19:36;67.30;;;32.97;;
28246;SDS011;66191;53.178;22.058;2023-01-29T11:22:14;75.33;;;35.57;;
28246;SDS011;66191;53.178;22.058;2023-01-29T11:25:05;101.97;;;46.25;;
28246;SDS011;66191;53.178;22.058;2023-01-29T11:27:42;82.85;;;39.85;;
28246;SDS011;66191;53.178;22.058;2023-01-29T11:30:20;72.13;;;33.70;;
28246;SDS011;66191;53.178;22.058;2023-01-29T11:32:58;71.63;;;34.08;;
28246;SDS011;66191;53.178;22.058;2023-01-29T11:35:37;91.00;;;47.17;;
28246;SDS011;66191;53.178;22.058;2023-01-29T11:38:17;98.15;;;54.13;;
28246;SDS011;66191;53.178;22.058;2023-01-29T11:41:04;168.73;;;98.50;;
28246;SDS011;66191;53.178;22.058;2023-01-29T11:43:36;75.40;;;40.70;;
28246;SDS011;66191;53.178;22.058;2023-01-29T11:46:10;120.55;;;63.92;;
28246;SDS011;66191;53.178;22.058;2023-01-29T11:48:44;78.03;;;44.05;;
28246;SDS011;66191;53.178;22.058;2023-01-29T11:51:31;50.65;;;27.08;;
28246;SDS011;66191;53.178;22.058;2023-01-29T11:54:09;77.55;;;42.15;;
28246;SDS011;66191;53.178;22.058;2023-01-29T11:56:48;58.95;;;30.73;;
28246;SDS011;66191;53.178;22.058;2023-01-29T11:59:24;65.55;;;37.35;;
28246;SDS011;66191;53.178;22.058;2023-01-29T12:02:05;62.53;;;31.20;;
28246;SDS011;66191;53.178;22.058;2023-01-29T12:04:53;62.38;;;29.48;;
28246;SDS011;66191;53.178;22.058;2023-01-29T12:07:27;68.78;;;37.92;;
28246;SDS011;66191;53.178;22.058;2023-01-29T12:10:03;46.53;;;26.45;;
28246;SDS011;66191;53.178;22.058;2023-01-29T12:12:37;57.08;;;31.02;;
28246;SDS011;66191;53.178;22.058;2023-01-29T12:15:18;49.00;;;25.08;;
28246;SDS011;66191;53.178;22.058;2023-01-29T12:17:54;68.03;;;32.15;;
28246;SDS011;66191;53.178;22.058;2023-01-29T12:20:33;74.13;;;39.92;;
28246;SDS011;66191;53.178;22.058;2023-01-29T12:23:16;60.63;;;32.47;;
28246;SDS011;66191;53.178;22.058;2023-01-29T12:26:01;67.65;;;32.85;;
28246;SDS011;66191;53.178;22.058;2023-01-29T12:28:40;60.28;;;31.00;;
28246;SDS011;66191;53.178;22.058;2023-01-29T12:31:21;65.82;;;31.85;;
28246;SDS011;66191;53.178;22.058;2023-01-29T12:34:00;70.10;;;36.25;;
28246;SDS011;66191;53.178;22.058;2023-01-29T12:36:40;66.80;;;34.92;;
28246;SDS011;66191;53.178;22.058;2023-01-29T12:39:19;56.00;;;30.45;;
28246;SDS011;66191;53.178;22.058;2023-01-29T12:41:55;115.28;;;62.65;;
28246;SDS011;66191;53.178;22.058;2023-01-29T12:44:30;60.35;;;31.48;;
28246;SDS011;66191;53.178;22.058;2023-01-29T12:47:11;53.58;;;28.42;;
28246;SDS011;66191;53.178;22.058;2023-01-29T12:49:50;75.93;;;39.28;;
28246;SDS011;66191;53.178;22.058;2023-01-29T12:52:30;61.75;;;32.70;;
28246;SDS011;66191;53.178;22.058;2023-01-29T12:55:09;78.30;;;39.47;;
28246;SDS011;66191;53.178;22.058;2023-01-29T12:57:52;79.07;;;39.22;;
28246;SDS011;66191;53.178;22.058;2023-01-29T13:00:27;62.10;;;29.88;;
28246;SDS011;66191;53.178;22.058;2023-01-29T13:03:03;79.13;;;37.60;;
28246;SDS011;66191;53.178;22.058;2023-01-29T13:05:45;115.40;;;60.78;;
28246;SDS011;66191;53.178;22.058;2023-01-29T13:08:22;79.72;;;43.13;;
28246;SDS011;66191;53.178;22.058;2023-01-29T13:10:57;95.38;;;46.17;;
28246;SDS011;66191;53.178;22.058;2023-01-29T13:13:37;68.38;;;35.33;;
28246;SDS011;66191;53.178;22.058;2023-01-29T13:16:21;64.35;;;34.13;;
28246;SDS011;66191;53.178;22.058;2023-01-29T13:18:56;54.72;;;27.48;;
28246;SDS011;66191;53.178;22.058;2023-01-29T13:21:32;91.40;;;47.58;;
28246;SDS011;66191;53.178;22.058;2023-01-29T13:24:10;82.50;;;38.35;;
28246;SDS011;66191;53.178;22.058;2023-01-29T13:26:43;80.30;;;39.80;;
28246;SDS011;66191;53.178;22.058;2023-01-29T13:29:22;72.38;;;33.40;;
28246;SDS011;66191;53.178;22.058;2023-01-29T13:31:55;78.20;;;36.90;;
28246;SDS011;66191;53.178;22.058;2023-01-29T13:34:29;62.53;;;33.05;;
28246;SDS011;66191;53.178;22.058;2023-01-29T13:37:08;60.75;;;30.23;;
28246;SDS011;66191;53.178;22.058;2023-01-29T13:39:47;61.15;;;31.08;;
28246;SDS011;66191;53.178;22.058;2023-01-29T13:42:21;61.55;;;29.17;;
28246;SDS011;66191;53.178;22.058;2023-01-29T13:44:59;68.15;;;32.72;;
28246;SDS011;66191;53.178;22.058;2023-01-29T13:47:33;69.30;;;33.30;;
28246;SDS011;66191;53.178;22.058;2023-01-29T13:50:08;86.93;;;37.15;;
28246;SDS011;66191;53.178;22.058;2023-01-29T13:52:51;82.70;;;38.45;;
28246;SDS011;66191;53.178;22.058;2023-01-29T13:55:25;90.65;;;45.65;;
28246;SDS011;66191;53.178;22.058;2023-01-29T13:58:00;101.22;;;48.97;;
28246;SDS011;66191;53.178;22.058;2023-01-29T14:06:39;81.97;;;41.20;;
28246;SDS011;66191;53.178;22.058;2023-01-29T14:12:00;90.65;;;43.53;;
28246;SDS011;66191;53.178;22.058;2023-01-29T14:14:49;81.32;;;39.85;;
28246;SDS011;66191;53.178;22.058;2023-01-29T14:17:33;61.67;;;31.02;;
28246;SDS011;66191;53.178;22.058;2023-01-29T14:20:15;71.22;;;34.33;;
28246;SDS011;66191;53.178;22.058;2023-01-29T14:22:55;61.17;;;29.95;;
28246;SDS011;66191;53.178;22.058;2023-01-29T14:25:31;82.15;;;39.58;;
28246;SDS011;66191;53.178;22.058;2023-01-29T14:28:12;66.70;;;31.77;;
28246;SDS011;66191;53.178;22.058;2023-01-29T14:30:45;64.03;;;31.63;;
28246;SDS011;66191;53.178;22.058;2023-01-29T14:33:34;72.32;;;35.72;;
28246;SDS011;66191;53.178;22.058;2023-01-29T14:36:33;72.18;;;34.35;;
28246;SDS011;66191;53.178;22.058;2023-01-29T14:40:12;81.28;;;38.67;;
28246;SDS011;66191;53.178;22.058;2023-01-29T14:43:34;80.78;;;37.00;;
28246;SDS011;66191;53.178;22.058;2023-01-29T14:46:41;110.40;;;50.42;;
28246;SDS011;66191;53.178;22.058;2023-01-29T14:49:25;113.68;;;53.88;;
28246;SDS011;66191;53.178;22.058;2023-01-29T14:52:24;86.53;;;40.97;;
28246;SDS011;66191;53.178;22.058;2023-01-29T14:55:04;88.88;;;41.85;;
28246;SDS011;66191;53.178;22.058;2023-01-29T14:57:40;91.70;;;44.40;;
28246;SDS011;66191;53.178;22.058;2023-01-29T15:00:13;81.20;;;37.70;;
28246;SDS011;66191;53.178;22.058;2023-01-29T15:02:49;70.50;;;33.40;;
28246;SDS011;66191;53.178;22.058;2023-01-29T15:05:31;72.32;;;31.05;;
28246;SDS011;66191;53.178;22.058;2023-01-29T15:08:11;90.13;;;39.38;;
28246;SDS011;66191;53.178;22.058;2023-01-29T15:10:51;108.90;;;52.03;;
28246;SDS011;66191;53.178;22.058;2023-01-29T15:13:40;93.35;;;46.97;;
28246;SDS011;66191;53.178;22.058;2023-01-29T15:16:16;93.00;;;46.42;;
28246;SDS011;66191;53.178;22.058;2023-01-29T15:18:53;67.80;;;34.38;;
28246;SDS011;66191;53.178;22.058;2023-01-29T15:21:38;105.72;;;47.05;;
28246;SDS011;66191;53.178;22.058;2023-01-29T15:24:35;114.53;;;49.53;;
28246;SDS011;66191;53.178;22.058;2023-01-29T15:27:10;92.47;;;38.90;;
28246;SDS011;66191;53.178;22.058;2023-01-29T15:29:46;88.18;;;38.08;;
28246;SDS011;66191;53.178;22.058;2023-01-29T15:32:24;93.20;;;42.50;;
28246;SDS011;66191;53.178;22.058;2023-01-29T15:34:58;94.00;;;44.58;;
28246;SDS011;66191;53.178;22.058;2023-01-29T15:37:34;74.53;;;33.53;;
28246;SDS011;66191;53.178;22.058;2023-01-29T15:40:11;88.88;;;37.25;;
28246;SDS011;66191;53.178;22.058;2023-01-29T15:42:46;76.53;;;38.10;;
28246;SDS011;66191;53.178;22.058;2023-01-29T15:45:24;87.28;;;38.03;;
28246;SDS011;66191;53.178;22.058;2023-01-29T15:48:01;74.35;;;34.42;;
28246;SDS011;66191;53.178;22.058;2023-01-29T15:50:34;74.28;;;35.67;;
28246;SDS011;66191;53.178;22.058;2023-01-29T15:53:14;72.38;;;33.42;;
28246;SDS011;66191;53.178;22.058;2023-01-29T15:55:50;92.70;;;45.38;;
28246;SDS011;66191;53.178;22.058;2023-01-29T15:58:23;90.97;;;40.70;;